createdAt,value
2022-11-06T00:01:52.141Z,9.61
2022-11-06T00:04:19.095Z,9.60
2022-11-06T00:06:48.770Z,9.46
2022-11-06T00:09:21.291Z,9.50
2022-11-06T00:11:50.478Z,9.46
2022-11-06T00:14:18.337Z,9.37
2022-11-06T00:16:47.103Z,9.26
2022-11-06T00:19:14.441Z,9.21
2022-11-06T00:21:41.539Z,9.25
2022-11-06T00:24:11.364Z,9.13
2022-11-06T00:29:33.000Z,9.30
2022-11-06T00:37:48.738Z,9.12
2022-11-06T00:40:15.769Z,9.03
2022-11-06T00:42:45.076Z,8.97
2022-11-06T00:45:12.018Z,8.92
2022-11-06T00:47:39.041Z,8.95
2022-11-06T00:50:06.710Z,8.88
2022-11-06T00:52:33.668Z,8.90
2022-11-06T00:55:00.640Z,8.90
2022-11-06T00:57:27.594Z,8.87
2022-11-06T00:59:54.498Z,8.89
2022-11-06T01:02:21.688Z,8.75
2022-11-06T01:04:48.742Z,8.77
2022-11-06T01:07:15.657Z,8.75
2022-11-06T01:33:14.924Z,8.53
2022-11-06T02:04:57.805Z,8.22
2022-11-06T02:07:24.880Z,8.21
2022-11-06T02:09:51.802Z,8.16
2022-11-06T02:48:16.573Z,7.95
2022-11-06T02:50:48.212Z,7.91
2022-11-06T02:53:18.370Z,7.92
2022-11-06T02:55:50.958Z,7.92
2022-11-06T02:58:49.416Z,7.87
2022-11-06T03:01:30.380Z,7.84
2022-11-06T03:04:22.946Z,7.77
2022-11-06T03:06:58.151Z,7.75
2022-11-06T03:09:31.924Z,7.72
2022-11-06T03:12:20.205Z,7.76
2022-11-06T03:15:14.617Z,7.64
2022-11-06T03:18:41.362Z,7.64
2022-11-06T03:21:26.107Z,7.56
2022-11-06T03:24:03.537Z,7.71
2022-11-06T03:26:37.144Z,7.70
2022-11-06T03:29:27.275Z,7.68
2022-11-06T03:32:00.981Z,7.63
2022-11-06T03:34:39.835Z,7.58
2022-11-06T03:37:17.265Z,7.52
2022-11-06T03:39:53.344Z,7.46
2022-11-06T03:42:26.938Z,7.53
2022-11-06T03:45:01.623Z,7.46
2022-11-06T03:47:57.499Z,7.42
2022-11-06T03:50:54.794Z,7.30
2022-11-06T03:53:26.014Z,7.23
2022-11-06T03:56:02.499Z,7.31
2022-11-06T03:58:38.022Z,7.31
2022-11-06T04:01:09.734Z,7.22
2022-11-06T04:04:05.273Z,7.14
2022-11-06T04:06:53.383Z,7.22
2022-11-06T04:09:43.459Z,7.18
2022-11-06T04:12:36.713Z,7.10
2022-11-06T04:15:05.597Z,7.00
2022-11-06T04:17:33.511Z,6.96
2022-11-06T04:20:05.709Z,6.88
2022-11-06T04:22:37.349Z,6.93
2022-11-06T04:25:34.290Z,6.91
2022-11-06T04:28:33.816Z,6.93
2022-11-06T04:31:34.908Z,6.78
2022-11-06T04:34:48.160Z,6.77
2022-11-06T04:37:43.382Z,6.83
2022-11-06T04:40:42.027Z,6.78
2022-11-06T04:43:22.013Z,6.79
2022-11-06T04:45:53.557Z,6.70
2022-11-06T04:48:22.388Z,6.62
2022-11-06T04:50:55.612Z,6.50
2022-11-06T04:53:24.280Z,6.40
2022-11-06T04:56:01.245Z,6.50
2022-11-06T04:58:28.286Z,6.41
2022-11-06T05:00:55.295Z,6.39
2022-11-06T05:03:22.291Z,6.49
2022-11-06T05:05:49.254Z,6.28
2022-11-06T05:08:19.939Z,6.28
2022-11-06T05:10:47.896Z,6.45
2022-11-06T05:13:16.173Z,6.40
2022-11-06T05:15:43.116Z,6.37
2022-11-06T05:18:10.288Z,6.18
2022-11-06T05:20:37.628Z,6.13
2022-11-06T05:23:04.680Z,6.16
2022-11-06T05:25:40.493Z,6.13
2022-11-06T05:28:08.921Z,6.22
2022-11-06T05:30:37.622Z,6.33
2022-11-06T05:33:04.862Z,6.12
2022-11-06T05:35:32.669Z,6.23
2022-11-06T05:38:03.431Z,6.05
2022-11-06T05:40:30.923Z,6.07
2022-11-06T05:42:57.908Z,6.01
2022-11-06T05:45:24.866Z,6.05
2022-11-06T05:47:51.774Z,6.07
2022-11-06T05:50:18.821Z,6.08
2022-11-06T05:52:45.735Z,6.03
2022-11-06T05:55:15.139Z,6.03
2022-11-06T06:06:59.022Z,5.94
2022-11-06T06:09:25.980Z,5.89
2022-11-06T06:11:54.196Z,5.95
2022-11-06T06:20:11.294Z,6.24
2022-11-06T06:22:38.197Z,6.20
2022-11-06T06:31:00.063Z,6.41
2022-11-06T06:33:28.529Z,6.55
2022-11-06T07:33:08.664Z,7.14
2022-11-06T07:35:35.695Z,7.31
2022-11-06T07:38:07.124Z,7.29
2022-11-06T07:49:18.200Z,7.25
2022-11-06T07:54:39.791Z,7.25
2022-11-06T08:08:45.520Z,7.40
2022-11-06T08:11:13.526Z,7.61
2022-11-06T08:13:42.824Z,7.64
2022-11-06T08:16:12.858Z,7.45
2022-11-06T08:18:40.275Z,7.44
2022-11-06T08:21:08.100Z,7.41
2022-11-06T08:23:36.254Z,7.43
2022-11-06T08:29:00.220Z,7.55
2022-11-06T08:31:27.281Z,7.61
2022-11-06T08:33:54.522Z,7.68
2022-11-06T08:36:21.434Z,7.80
2022-11-06T08:38:48.720Z,7.94
2022-11-06T08:44:10.456Z,8.24
2022-11-06T08:55:20.832Z,8.38
2022-11-06T09:00:45.896Z,8.66
2022-11-06T09:03:17.927Z,8.68
2022-11-06T09:08:39.735Z,8.54
2022-11-06T09:11:19.038Z,8.74
2022-11-06T09:13:45.968Z,8.79
2022-11-06T09:16:16.100Z,8.86
2022-11-06T09:18:44.087Z,8.97
2022-11-06T09:21:11.126Z,8.99
2022-11-06T09:23:38.158Z,8.92
2022-11-06T09:26:05.240Z,8.69
2022-11-06T09:28:32.183Z,8.84
2022-11-06T09:30:59.093Z,8.92
2022-11-06T09:33:27.106Z,9.19
2022-11-06T09:35:54.061Z,9.06
2022-11-06T09:38:21.030Z,8.95
2022-11-06T09:40:58.106Z,8.93
2022-11-06T09:44:04.770Z,8.89
2022-11-06T09:46:40.962Z,9.02
2022-11-06T09:49:27.293Z,8.89
2022-11-06T09:52:23.092Z,9.07
2022-11-06T09:55:16.358Z,9.32
2022-11-06T09:57:53.934Z,9.17
2022-11-06T10:00:21.121Z,9.21
2022-11-06T10:03:01.021Z,9.16
2022-11-06T10:05:28.978Z,9.22
2022-11-06T10:08:17.252Z,9.44
2022-11-06T10:11:15.480Z,9.37
2022-11-06T10:14:04.966Z,9.49
2022-11-06T10:16:34.799Z,9.46
2022-11-06T10:19:16.371Z,9.48
2022-11-06T10:21:54.463Z,9.42
2022-11-06T10:24:29.707Z,9.54
2022-11-06T10:26:58.224Z,9.61
2022-11-06T10:29:53.742Z,9.40
2022-11-06T10:32:53.294Z,9.44
2022-11-06T10:35:30.863Z,9.60
2022-11-06T10:38:14.873Z,9.75
2022-11-06T10:40:46.398Z,9.97
2022-11-06T10:43:29.601Z,9.99
2022-11-06T10:46:36.562Z,9.93
2022-11-06T10:49:41.908Z,10.25
2022-11-06T10:52:30.045Z,10.34
2022-11-06T10:55:11.427Z,10.56
2022-11-06T10:57:45.601Z,10.83
2022-11-06T11:00:15.357Z,10.80
2022-11-06T11:03:03.012Z,10.71
2022-11-06T11:05:41.881Z,11.12
2022-11-06T11:08:28.702Z,11.45
2022-11-06T11:11:15.511Z,11.17
2022-11-06T11:13:48.195Z,11.06
2022-11-06T11:16:38.249Z,11.41
2022-11-06T11:19:26.910Z,11.36
2022-11-06T11:22:00.074Z,11.07
2022-11-06T11:24:27.583Z,11.19
2022-11-06T11:27:02.865Z,11.07
2022-11-06T11:29:45.237Z,11.17
2022-11-06T11:32:17.296Z,11.56
2022-11-06T11:34:56.905Z,11.62
2022-11-06T11:37:33.309Z,11.48
2022-11-06T11:40:38.224Z,12.08
2022-11-06T11:43:25.331Z,12.00
2022-11-06T11:46:10.462Z,12.05
2022-11-06T11:48:58.397Z,12.14
2022-11-06T11:51:36.166Z,11.65
2022-11-06T11:54:12.730Z,11.77
2022-11-06T11:57:07.589Z,11.86
2022-11-06T11:59:56.542Z,12.58
2022-11-06T12:02:36.725Z,12.87
2022-11-06T12:05:14.007Z,12.93
2022-11-06T12:07:48.750Z,12.30
2022-11-06T12:10:27.604Z,12.65
2022-11-06T12:12:57.285Z,12.40
2022-11-06T12:16:20.603Z,12.23
2022-11-06T12:18:58.708Z,12.00
2022-11-06T12:21:35.900Z,11.77
2022-11-06T12:24:22.116Z,11.65
2022-11-06T12:26:59.321Z,11.64
2022-11-06T12:29:47.649Z,11.60
2022-11-06T12:33:01.313Z,11.58
2022-11-06T12:36:01.283Z,11.58
2022-11-06T12:38:53.794Z,11.64
2022-11-06T12:41:28.098Z,11.40
2022-11-06T12:43:56.806Z,11.26
2022-11-06T12:46:56.253Z,11.11
2022-11-06T12:53:12.419Z,11.37
2022-11-06T13:03:44.341Z,11.38
2022-11-06T13:07:14.823Z,11.13
2022-11-06T13:23:02.435Z,10.80
2022-11-06T13:25:51.833Z,10.74
2022-11-06T13:28:47.018Z,10.61
2022-11-06T13:31:19.382Z,10.63
2022-11-06T13:33:54.765Z,10.48
2022-11-06T13:36:22.930Z,10.51
2022-11-06T13:38:56.126Z,10.71
2022-11-06T13:41:28.452Z,10.40
2022-11-06T13:44:04.537Z,10.54
2022-11-06T13:47:09.763Z,10.40
2022-11-06T13:49:58.238Z,10.23
2022-11-06T13:52:49.328Z,10.42
2022-11-06T13:55:49.397Z,10.39
2022-11-06T13:58:16.532Z,10.27
2022-11-06T14:00:55.285Z,10.16
2022-11-06T14:03:51.403Z,10.27
2022-11-06T14:06:18.182Z,10.29
2022-11-06T14:08:50.219Z,10.07
2022-11-06T14:11:26.524Z,10.30
2022-11-06T14:14:03.642Z,10.16
2022-11-06T14:16:37.362Z,10.09
2022-11-06T14:19:22.588Z,10.02
2022-11-06T14:21:55.838Z,10.12
2022-11-06T14:24:36.503Z,10.11
2022-11-06T14:27:34.022Z,10.27
2022-11-06T14:31:10.587Z,9.93
2022-11-06T14:33:43.195Z,9.82
2022-11-06T14:36:33.348Z,9.78
2022-11-06T14:39:01.480Z,9.84
2022-11-06T14:41:34.695Z,9.76
2022-11-06T14:44:20.668Z,9.68
2022-11-06T14:46:58.624Z,9.66
2022-11-06T14:49:33.329Z,9.68
2022-11-06T14:52:13.174Z,9.39
2022-11-06T14:54:51.053Z,9.33
2022-11-06T14:57:33.716Z,9.33
2022-11-06T15:00:01.228Z,9.17
2022-11-06T15:02:31.167Z,8.97
2022-11-06T15:05:27.829Z,8.95
2022-11-06T15:08:04.942Z,9.01
2022-11-06T15:10:44.957Z,8.95
2022-11-06T15:13:16.115Z,9.04
2022-11-06T15:15:51.137Z,9.13
2022-11-06T15:18:24.715Z,8.97
2022-11-06T15:20:58.545Z,9.05
2022-11-06T15:23:38.185Z,9.04
2022-11-06T15:26:26.857Z,8.92
2022-11-06T15:28:59.821Z,8.92
2022-11-06T15:31:30.152Z,8.75
2022-11-06T15:34:03.934Z,8.75
2022-11-06T15:36:39.642Z,8.82
2022-11-06T15:39:31.630Z,8.61
2022-11-06T15:41:58.747Z,8.58
2022-11-06T15:44:26.146Z,8.58
2022-11-06T15:46:58.434Z,8.50
2022-11-06T15:49:26.264Z,8.42
2022-11-06T15:52:03.996Z,8.39
2022-11-06T15:54:38.905Z,8.30
2022-11-06T15:57:15.575Z,8.19
2022-11-06T15:59:42.726Z,8.14
2022-11-06T16:02:20.531Z,8.10
2022-11-06T16:04:49.907Z,8.17
2022-11-06T16:07:19.363Z,8.08
2022-11-06T16:09:47.536Z,8.11
2022-11-06T16:12:18.033Z,8.06
2022-11-06T16:14:45.582Z,8.09
2022-11-06T16:17:25.853Z,8.10
2022-11-06T16:19:58.754Z,7.94
2022-11-06T16:22:32.219Z,7.95
2022-11-06T16:25:04.436Z,7.90
2022-11-06T16:27:41.857Z,7.95
2022-11-06T16:30:25.441Z,7.78
2022-11-06T16:32:53.005Z,7.81
2022-11-06T16:35:36.989Z,7.93
2022-11-06T16:38:39.199Z,7.92
2022-11-06T16:41:02.673Z,7.77
2022-11-06T16:43:29.674Z,7.82
2022-11-06T16:46:08.447Z,7.79
2022-11-06T16:48:45.588Z,7.78
2022-11-06T16:51:32.759Z,7.85
2022-11-06T16:54:01.996Z,7.83
2022-11-06T16:56:34.680Z,7.94
2022-11-06T16:59:09.543Z,7.78
2022-11-06T17:01:45.696Z,7.85
2022-11-06T17:04:29.947Z,7.78
2022-11-06T17:06:58.555Z,7.86
2022-11-06T17:09:35.845Z,7.75
2022-11-06T17:12:03.834Z,7.65
2022-11-06T17:14:32.676Z,7.62
2022-11-06T17:17:01.574Z,7.78
2022-11-06T17:19:29.833Z,7.56
2022-11-06T17:21:58.011Z,7.60
2022-11-06T17:24:41.414Z,7.64
2022-11-06T17:27:08.789Z,7.70
2022-11-06T17:29:36.501Z,7.77
2022-11-06T17:32:04.421Z,7.70
2022-11-06T17:34:31.462Z,7.59
2022-11-06T17:36:58.414Z,7.60
2022-11-06T17:39:25.810Z,7.62
2022-11-06T17:41:53.616Z,7.60
2022-11-06T17:44:22.444Z,7.71
2022-11-06T17:46:49.405Z,7.56
2022-11-06T17:49:18.413Z,7.54
2022-11-06T17:51:53.672Z,7.60
2022-11-06T17:54:27.390Z,7.50
2022-11-06T17:56:56.759Z,7.64
2022-11-06T17:59:24.134Z,7.53
2022-11-06T18:01:52.839Z,7.45
2022-11-06T18:04:22.728Z,7.45
2022-11-06T18:06:52.252Z,7.44
2022-11-06T18:09:21.386Z,7.42
2022-11-06T18:11:53.770Z,7.39
2022-11-06T18:14:22.233Z,7.35
2022-11-06T18:16:49.419Z,7.51
2022-11-06T18:19:20.145Z,7.43
2022-11-06T18:21:48.253Z,7.34
2022-11-06T18:24:15.348Z,7.40
2022-11-06T18:26:42.486Z,7.35
2022-11-06T18:29:10.972Z,7.29
2022-11-06T18:31:37.893Z,7.25
2022-11-06T18:34:06.274Z,7.25
2022-11-06T18:36:36.526Z,7.34
2022-11-06T18:39:05.122Z,7.25
2022-11-06T18:41:32.404Z,7.29
2022-11-06T18:44:00.401Z,7.24
2022-11-06T18:46:28.176Z,7.25
2022-11-06T18:48:56.241Z,7.22
2022-11-06T18:51:37.856Z,7.20
2022-11-06T18:54:09.708Z,7.20
2022-11-06T18:56:37.332Z,7.15
2022-11-06T18:59:07.132Z,7.11
2022-11-06T19:01:35.421Z,7.28
2022-11-06T19:04:03.879Z,7.11
2022-11-06T19:06:31.856Z,7.08
2022-11-06T19:08:58.967Z,7.03
2022-11-06T19:11:26.065Z,7.07
2022-11-06T19:13:53.019Z,7.04
2022-11-06T19:16:20.383Z,7.09
2022-11-06T19:21:30.307Z,7.08
2022-11-06T19:24:04.612Z,6.97
2022-11-06T19:26:36.807Z,7.07
2022-11-06T19:29:08.583Z,7.04
2022-11-06T19:31:37.555Z,7.00
2022-11-06T19:34:07.367Z,7.02
2022-11-06T19:36:35.559Z,6.96
2022-11-06T19:39:02.783Z,6.89
2022-11-06T19:41:30.109Z,6.95
2022-11-06T19:43:57.143Z,7.01
2022-11-06T19:46:29.502Z,6.98
2022-11-06T19:49:01.028Z,6.98
2022-11-06T19:51:27.956Z,7.05
2022-11-06T19:53:55.301Z,6.93
2022-11-06T19:56:22.545Z,6.90
2022-11-06T19:58:50.740Z,6.97
2022-11-06T20:01:19.147Z,6.90
2022-11-06T20:03:46.664Z,6.86
2022-11-06T20:06:14.479Z,6.93
2022-11-06T20:08:41.460Z,6.86
2022-11-06T20:11:14.890Z,6.96
2022-11-06T20:13:43.481Z,6.96
2022-11-06T20:16:14.704Z,6.94
2022-11-06T20:18:41.605Z,6.88
2022-11-06T20:21:12.025Z,6.80
2022-11-06T20:23:39.144Z,7.02
2022-11-06T20:26:07.112Z,6.96
2022-11-06T20:28:34.652Z,6.89
2022-11-06T20:31:11.320Z,6.97
2022-11-06T20:33:39.320Z,6.87
2022-11-06T20:36:19.857Z,6.88
2022-11-06T20:38:47.223Z,6.88
2022-11-06T20:41:15.050Z,6.92
2022-11-06T20:43:43.637Z,6.87
2022-11-06T20:46:12.366Z,6.91
2022-11-06T20:48:39.685Z,6.88
2022-11-06T20:51:11.311Z,6.93
2022-11-06T20:53:39.291Z,6.94
2022-11-06T20:56:10.353Z,6.85
2022-11-06T20:58:37.471Z,6.75
2022-11-06T21:01:19.750Z,6.76
2022-11-06T21:03:49.900Z,6.84
2022-11-06T21:06:20.083Z,6.76
2022-11-06T21:08:47.645Z,6.76
2022-11-06T21:11:21.592Z,6.69
2022-11-06T21:13:50.418Z,6.76
2022-11-06T21:16:24.858Z,6.74
2022-11-06T21:18:53.006Z,6.68
2022-11-06T21:21:26.231Z,6.66
2022-11-06T21:23:54.176Z,6.60
2022-11-06T21:26:27.767Z,6.51
2022-11-06T21:28:56.095Z,6.67
2022-11-06T21:31:26.881Z,6.68
2022-11-06T21:33:57.626Z,6.60
2022-11-06T21:36:28.333Z,6.58
2022-11-06T21:39:00.891Z,6.50
2022-11-06T21:41:30.361Z,6.53
2022-11-06T21:43:57.694Z,6.50
2022-11-06T21:46:25.079Z,6.52
2022-11-06T21:48:53.077Z,6.45
2022-11-06T21:57:36.708Z,6.43
2022-11-06T22:00:14.517Z,6.37
2022-11-06T22:02:41.734Z,6.44
2022-11-06T22:13:53.890Z,6.31
2022-11-06T22:28:03.721Z,6.23
2022-11-06T22:30:30.627Z,6.36
2022-11-06T22:33:30.607Z,6.29
2022-11-06T22:36:09.535Z,6.17
2022-11-06T23:13:40.006Z,6.25
2022-11-06T23:34:46.659Z,6.00
2022-11-06T23:37:13.550Z,5.91
